Time;durP1;ratioP1;P1;durP2;ratioP2;P2;SDS_P1;SDS_P2;PMS_P1;PMS_P2;Temp;Humidity;BMP_temperature;BMP_pressure;BME280_temperature;BME280_humidity;BME280_pressure;Samples;Min_cycle;Max_cycle;Signal;HPM_P1;HPM_P2
2022/12/26 00:01:21;;;;;;;17.38;10.85;;;;;;;8.40;100.00;100825.25;5071602;28;20460;-52
2022/12/26 00:03:50;;;;;;;19.77;12.88;;;;;;;8.43;100.00;100833.78;5072996;28;20045;-53
2022/12/26 00:06:20;;;;;;;19.70;11.20;;;;;;;8.45;100.00;100828.47;5071707;28;20048;-53
2022/12/26 00:08:49;;;;;;;18.80;11.73;;;;;;;8.44;100.00;100827.59;5068352;28;20048;-53
2022/12/26 00:11:18;;;;;;;19.58;12.02;;;;;;;8.44;100.00;100829.41;5069766;28;20048;-53
2022/12/26 00:13:47;;;;;;;19.73;12.50;;;;;;;8.45;100.00;100831.09;5070974;28;20059;-52
2022/12/26 00:16:19;;;;;;;23.10;13.82;;;;;;;8.43;100.00;100836.41;5068020;28;20041;-50
2022/12/26 00:18:48;;;;;;;23.23;14.13;;;;;;;8.45;100.00;100831.09;5071637;28;20045;-52
2022/12/26 00:21:18;;;;;;;21.85;12.93;;;;;;;8.45;100.00;100831.97;5072642;28;20064;-53
2022/12/26 00:23:47;;;;;;;23.10;13.70;;;;;;;8.45;100.00;100836.34;5068754;28;20048;-51
2022/12/26 00:26:17;;;;;;;26.10;15.52;;;;;;;8.45;100.00;100834.59;5070936;28;20056;-53
2022/12/26 00:28:47;;;;;;;27.58;16.13;;;;;;;8.44;100.00;100827.59;5070222;28;20052;-53
2022/12/26 00:31:18;;;;;;;25.55;13.98;;;;;;;8.47;100.00;100831.88;5067777;28;20049;-50
2022/12/26 00:33:47;;;;;;;25.23;13.27;;;;;;;8.48;100.00;100827.47;5071855;28;20040;-49
2022/12/26 00:36:17;;;;;;;23.80;13.52;;;;;;;8.48;100.00;100830.94;5072390;28;20097;-53
2022/12/26 00:38:46;;;;;;;26.95;14.43;;;;;;;8.50;100.00;100836.94;5072982;28;20121;-51
2022/12/26 00:41:16;;;;;;;28.58;14.50;;;;;;;8.51;100.00;100830.75;5071991;28;20515;-52
2022/12/26 00:43:44;;;;;;;25.85;14.27;;;;;;;8.52;100.00;100837.69;5072775;28;20056;-51
2022/12/26 00:46:14;;;;;;;27.08;15.27;;;;;;;8.50;100.00;100843.97;5071498;28;20460;-50
2022/12/26 00:48:43;;;;;;;29.70;15.75;;;;;;;8.43;100.00;100844.25;5068594;28;20038;-53
2022/12/26 00:51:11;;;;;;;27.80;15.57;;;;;;;8.49;100.00;100852.75;5070783;28;20123;-53
2022/12/26 00:53:40;;;;;;;32.28;16.55;;;;;;;8.45;100.00;100850.31;5072379;28;20036;-53
2022/12/26 00:56:08;;;;;;;32.28;16.50;;;;;;;8.45;100.00;100852.06;5072545;28;20123;-51
2022/12/26 00:58:36;;;;;;;29.23;16.13;;;;;;;8.47;100.00;100844.97;5072250;28;20094;-53
2022/12/26 01:01:10;;;;;;;29.42;15.43;;;;;;;8.50;100.00;100851.81;5072459;28;20110;-52
2022/12/26 01:03:42;;;;;;;31.33;16.15;;;;;;;8.51;100.00;100856.97;5072040;28;20044;-51
2022/12/26 01:06:10;;;;;;;33.72;16.45;;;;;;;8.52;100.00;100874.41;5072282;28;20127;-50
2022/12/26 01:08:39;;;;;;;34.30;17.88;;;;;;;8.48;100.00;100872.88;5072084;28;20044;-51
2022/12/26 01:11:10;;;;;;;34.53;16.85;;;;;;;8.50;100.00;100876.25;5071856;28;20059;-58
2022/12/26 01:13:39;;;;;;;36.70;18.60;;;;;;;8.48;100.00;100875.50;5069872;28;20147;-58
2022/12/26 01:16:08;;;;;;;37.10;18.35;;;;;;;8.45;100.00;100866.03;5069509;28;20082;-58
2022/12/26 01:18:36;;;;;;;36.78;18.48;;;;;;;8.48;100.00;100867.63;5069774;28;20036;-58
2022/12/26 01:21:10;;;;;;;36.85;19.15;;;;;;;8.52;100.00;100868.28;5069066;28;20399;-58
2022/12/26 01:23:38;;;;;;;37.70;19.20;;;;;;;8.53;100.00;100878.69;5071481;28;20044;-58
2022/12/26 01:26:07;;;;;;;35.97;19.50;;;;;;;8.53;100.00;100885.72;5071728;28;20049;-52
2022/12/26 01:28:46;;;;;;;35.30;18.77;;;;;;;8.53;100.00;100881.31;5070377;28;20055;-53
2022/12/26 01:31:15;;;;;;;35.75;18.50;;;;;;;8.56;100.00;100882.91;5067055;28;20757;-52
2022/12/26 01:33:43;;;;;;;31.38;17.35;;;;;;;8.55;100.00;100891.72;5070904;28;20056;-52
2022/12/26 01:36:13;;;;;;;32.92;18.35;;;;;;;8.53;100.00;100890.97;5071774;28;20052;-53
2022/12/26 01:38:42;;;;;;;33.80;18.10;;;;;;;8.50;100.00;100870.16;5052464;28;20083;-52
2022/12/26 01:41:18;;;;;;;30.73;17.00;;;;;;;8.50;100.00;100865.75;5051854;28;20057;-52
2022/12/26 01:43:56;;;;;;;33.10;17.27;;;;;;;8.50;100.00;100871.00;5051957;28;20055;-53
2022/12/26 01:46:29;;;;;;;28.95;16.45;;;;;;;8.53;100.00;100870.81;5062720;28;20052;-54
2022/12/26 01:49:01;;;;;;;27.90;15.48;;;;;;;8.49;100.00;100864.06;5071704;28;20048;-54
2022/12/26 01:51:37;;;;;;;27.30;16.03;;;;;;;8.51;100.00;100862.22;5071814;28;20051;-52
2022/12/26 01:54:08;;;;;;;27.70;16.70;;;;;;;8.48;100.00;100867.63;5074439;28;20044;-54
2022/12/26 01:56:58;;;;;;;24.80;15.20;;;;;;;8.52;100.00;100858.66;5074884;28;20124;-53
2022/12/26 01:59:31;;;;;;;27.08;16.17;;;;;;;8.46;100.00;100870.31;5072093;28;20044;-50
2022/12/26 02:02:00;;;;;;;27.58;16.10;;;;;;;8.47;100.00;100879.03;5071104;28;20082;-53
2022/12/26 02:07:24;;;;;;;27.23;16.55;;;;;;;8.47;100.00;100871.19;5075079;28;20048;-53
2022/12/26 02:09:53;;;;;;;28.27;16.58;;;;;;;8.46;100.00;100872.09;5071679;28;20397;-52
2022/12/26 02:12:25;;;;;;;25.70;16.20;;;;;;;8.46;100.00;100879.97;5072340;28;20127;-52
2022/12/26 02:15:08;;;;;;;28.15;16.75;;;;;;;8.48;100.00;100885.13;5073217;28;20048;-59
2022/12/26 02:17:37;;;;;;;26.80;16.05;;;;;;;8.46;100.00;100885.22;5070377;28;20566;-57
2022/12/26 02:20:16;;;;;;;26.83;16.33;;;;;;;8.46;100.00;100878.19;5074549;28;20091;-58
2022/12/26 02:23:37;;;;;;;31.40;17.50;;;;;;;8.38;100.00;100871.66;5075389;28;20123;-58
2022/12/26 02:26:39;;;;;;;30.60;16.75;;;;;;;8.44;100.00;100871.34;5072478;28;20056;-57
2022/12/26 02:29:45;;;;;;;30.90;17.60;;;;;;;8.44;100.00;100880.03;5070251;28;20045;-58
2022/12/26 02:32:22;;;;;;;29.15;18.23;;;;;;;8.44;100.00;100885.28;5075179;28;20040;-58
2022/12/26 02:35:01;;;;;;;32.28;19.27;;;;;;;8.43;100.00;100890.59;5075098;28;20041;-57
2022/12/26 02:37:44;;;;;;;30.80;19.40;;;;;;;8.45;100.00;100878.28;5053770;28;20041;-57
2022/12/26 02:40:22;;;;;;;;;;;;;;;8.45;100.00;100884.38;5052233;28;20061;-58
2022/12/26 02:42:58;;;;;;;31.45;18.83;;;;;;;8.47;100.00;100884.28;5053621;28;20281;-58
2022/12/26 02:48:31;;;;;;;30.05;19.33;;;;;;;8.49;100.00;100881.59;5075009;28;20105;-59
2022/12/26 03:14:07;;;;;;;29.20;18.42;;;;;;;8.43;100.00;100886.19;5074052;28;20047;-58
2022/12/26 03:19:25;;;;;;;27.08;17.83;;;;;;;8.41;100.00;100887.19;5071357;28;20427;-58
2022/12/26 03:21:57;;;;;;;29.25;18.70;;;;;;;8.39;100.00;100884.66;5072335;28;20135;-58
2022/12/26 03:26:38;;;;;;;26.23;17.60;;;;;;;8.39;100.00;100886.47;5073424;28;20044;-59
2022/12/26 03:27:15;;;;;;;29.40;18.33;;;;;;;8.39;100.00;100882.06;5073366;28;20037;-58
2022/12/26 03:32:41;;;;;;;27.60;17.70;;;;;;;8.38;100.00;100874.28;5073481;28;20047;-58
2022/12/26 03:35:12;;;;;;;28.20;18.25;;;;;;;8.34;100.00;100880.63;5070274;28;20045;-58
2022/12/26 03:37:52;;;;;;;28.00;18.90;;;;;;;8.29;100.00;100871.25;5071148;28;20068;-58
2022/12/26 04:44:04;;;;;;;34.22;22.80;;;;;;;8.27;100.00;100946.44;5071818;28;20492;-54
2022/12/26 04:46:36;;;;;;;31.42;22.10;;;;;;;8.32;100.00;100932.25;5069157;28;20051;-53
2022/12/26 04:51:52;;;;;;;32.90;21.30;;;;;;;8.29;100.00;100925.44;5071341;28;20072;-58
2022/12/26 04:54:20;;;;;;;31.02;21.35;;;;;;;8.27;100.00;100916.78;5072084;28;20123;-58
2022/12/26 04:56:48;;;;;;;30.35;19.90;;;;;;;8.28;100.00;100921.13;5070582;28;20138;-58
2022/12/26 04:59:17;;;;;;;30.70;21.42;;;;;;;8.22;100.00;100919.69;5072194;28;20037;-58
2022/12/26 05:10:12;;;;;;;29.27;20.15;;;;;;;8.17;100.00;100892.88;5092739;28;20068;-58
2022/12/26 05:12:42;;;;;;;28.58;19.83;;;;;;;8.17;100.00;100885.00;5068961;28;20048;-58
2022/12/26 05:15:11;;;;;;;26.90;19.08;;;;;;;8.10;100.00;100883.66;5066866;28;20048;-59
2022/12/26 05:28:55;;;;;;;21.13;15.65;;;;;;;8.10;100.00;100902.00;5073917;28;20048;-53
2022/12/26 05:31:23;;;;;;;19.95;14.75;;;;;;;8.11;100.00;100901.91;5075327;28;20033;-52
2022/12/26 05:34:09;;;;;;;19.52;14.50;;;;;;;8.12;100.00;100902.75;5075378;28;20414;-52
2022/12/26 05:36:40;;;;;;;21.42;14.27;;;;;;;8.04;100.00;100899.69;5074157;28;20040;-52
2022/12/26 05:39:09;;;;;;;19.58;13.50;;;;;;;8.04;100.00;100899.69;5072795;28;20048;-54
2022/12/26 05:41:39;;;;;;;18.55;12.75;;;;;;;7.99;100.00;100907.81;5074823;28;20499;-54
2022/12/26 05:44:08;;;;;;;16.70;12.43;;;;;;;8.01;100.00;100905.94;5071472;28;20432;-53
2022/12/26 05:46:37;;;;;;;16.90;11.85;;;;;;;7.99;100.00;100910.44;5070664;28;20038;-52
2022/12/26 05:49:08;;;;;;;14.95;10.63;;;;;;;7.99;100.00;100909.56;5074311;28;20441;-52
2022/12/26 05:51:37;;;;;;;15.75;10.32;;;;;;;7.97;100.00;100900.97;5072551;28;20040;-51
2022/12/26 05:54:05;;;;;;;16.20;10.00;;;;;;;7.89;100.00;100901.34;5072454;28;20502;-53
2022/12/26 05:56:33;;;;;;;14.60;9.60;;;;;;;7.90;100.00;100909.13;5070591;28;20056;-52
2022/12/26 05:59:02;;;;;;;12.50;8.45;;;;;;;7.88;100.00;100904.91;5069663;28;20078;-52
2022/12/26 06:01:30;;;;;;;13.10;8.63;;;;;;;7.87;100.00;100893.59;5061958;28;20037;-52
2022/12/26 06:04:00;;;;;;;10.75;7.13;;;;;;;7.82;100.00;100889.53;5074295;28;20439;-50
2022/12/26 06:06:31;;;;;;;11.65;8.18;;;;;;;7.82;100.00;100877.25;5072582;28;20036;-50
2022/12/26 06:08:59;;;;;;;10.20;6.53;;;;;;;7.81;100.00;100870.31;5074334;28;20044;-51
2022/12/26 06:11:28;;;;;;;12.25;7.75;;;;;;;7.79;100.00;100864.34;5074134;28;20086;-53
2022/12/26 06:13:56;;;;;;;10.80;6.90;;;;;;;7.80;100.00;100866.03;5074691;28;20048;-50
2022/12/26 06:16:24;;;;;;;11.00;6.40;;;;;;;7.83;100.00;100870.28;5074365;28;20396;-58
2022/12/26 06:18:55;;;;;;;11.15;7.07;;;;;;;7.77;100.00;100879.28;5074663;28;20120;-58
2022/12/26 06:21:23;;;;;;;10.23;6.30;;;;;;;7.72;100.00;100879.53;5072330;28;20048;-58
2022/12/26 06:23:53;;;;;;;10.27;6.43;;;;;;;7.75;100.00;100889.84;5071358;28;20055;-58
2022/12/26 06:26:21;;;;;;;10.90;6.18;;;;;;;7.74;100.00;100887.28;5074491;28;20040;-58
2022/12/26 06:28:49;;;;;;;9.68;5.97;;;;;;;7.73;100.00;100877.75;5074002;28;20048;-50
2022/12/26 06:31:20;;;;;;;10.75;6.20;;;;;;;7.73;100.00;100880.38;5074140;28;20386;-49
2022/12/26 06:33:50;;;;;;;9.93;6.00;;;;;;;7.69;100.00;100878.84;5070851;28;20455;-53
2022/12/26 06:36:20;;;;;;;9.55;5.82;;;;;;;7.66;100.00;100884.25;5073213;28;20404;-53
2022/12/26 06:38:49;;;;;;;10.32;6.57;;;;;;;7.68;100.00;100890.25;5074220;28;20049;-53
2022/12/26 06:41:21;;;;;;;11.90;6.43;;;;;;;7.67;100.00;100901.66;5072031;28;20480;-53
2022/12/26 06:43:49;;;;;;;11.00;6.72;;;;;;;7.67;100.00;100904.25;5070904;28;20458;-52
2022/12/26 06:46:20;;;;;;;11.20;6.43;;;;;;;7.72;100.00;100900.47;5073024;28;20090;-50
2022/12/26 06:48:48;;;;;;;11.90;5.97;;;;;;;7.70;100.00;100906.72;5074232;28;20051;-50
2022/12/26 06:51:19;;;;;;;10.63;6.00;;;;;;;7.67;100.00;100909.50;5071529;28;20041;-54
2022/12/26 06:53:47;;;;;;;11.13;6.45;;;;;;;7.65;100.00;100919.19;5072287;28;20562;-52
2022/12/26 06:56:18;;;;;;;10.07;6.32;;;;;;;7.62;100.00;100920.19;5072509;28;20055;-53
2022/12/26 06:58:53;;;;;;;12.52;6.93;;;;;;;7.52;100.00;100925.06;5070954;28;20561;-53
2022/12/26 07:01:22;;;;;;;13.63;7.32;;;;;;;7.56;100.00;100928.38;5074125;28;20422;-53
2022/12/26 07:03:52;;;;;;;14.15;7.53;;;;;;;7.55;100.00;100934.53;5074315;28;20033;-53
2022/12/26 07:06:24;;;;;;;11.98;7.38;;;;;;;7.55;100.00;100932.78;5074371;28;20053;-49
2022/12/26 07:08:54;;;;;;;12.45;7.78;;;;;;;7.53;100.00;100928.53;5074300;28;20078;-53
2022/12/26 07:11:24;;;;;;;12.25;7.22;;;;;;;7.51;100.00;100932.97;5074118;28;20131;-50
2022/12/26 07:13:54;;;;;;;12.45;7.53;;;;;;;7.49;100.00;100933.06;5074020;28;20529;-53
2022/12/26 07:16:23;;;;;;;12.98;7.55;;;;;;;7.47;100.00;100927.03;5074090;28;20048;-53
2022/12/26 07:18:53;;;;;;;12.75;7.72;;;;;;;7.49;100.00;100927.84;5072590;28;20520;-52
2022/12/26 07:21:22;;;;;;;13.57;8.38;;;;;;;7.53;100.00;100934.59;5071442;28;20061;-54
2022/12/26 07:23:51;;;;;;;14.32;8.68;;;;;;;7.51;100.00;100927.75;5072660;28;20117;-51
2022/12/26 07:26:19;;;;;;;14.63;7.43;;;;;;;7.51;100.00;100932.97;5074046;28;20052;-51
2022/12/26 07:28:47;;;;;;;14.00;7.95;;;;;;;7.48;100.00;100931.38;5072455;28;20048;-52
2022/12/26 07:31:19;;;;;;;14.68;8.32;;;;;;;7.51;100.00;100932.97;5069234;28;20049;-52
2022/12/26 07:33:48;;;;;;;13.73;8.40;;;;;;;7.47;100.00;100950.59;5071982;28;20492;-53
2022/12/26 07:36:16;;;;;;;15.88;8.80;;;;;;;7.44;100.00;100946.41;5073637;28;20087;-54
2022/12/26 07:38:45;;;;;;;14.77;9.00;;;;;;;7.50;100.00;100950.47;5070935;28;20040;-53
2022/12/26 07:43:59;;;;;;;14.55;8.18;;;;;;;7.48;100.00;100941.84;5073555;28;20097;-53
2022/12/26 07:46:29;;;;;;;16.08;7.93;;;;;;;7.51;100.00;100943.44;5073084;28;20519;-54
2022/12/26 07:48:57;;;;;;;14.00;8.02;;;;;;;7.48;100.00;100933.16;5069180;28;20052;-52
2022/12/26 07:51:26;;;;;;;12.45;8.00;;;;;;;7.49;100.00;100929.63;5069906;28;20044;-54
2022/12/26 07:53:54;;;;;;;12.70;7.50;;;;;;;7.50;100.00;100932.16;5071644;28;20040;-52
2022/12/26 07:56:23;;;;;;;14.85;8.70;;;;;;;7.44;100.00;100932.44;5067871;28;20044;-52
2022/12/26 07:58:51;;;;;;;13.02;7.80;;;;;;;7.51;100.00;100933.84;5070521;28;20123;-54
2022/12/26 08:01:20;;;;;;;12.32;7.93;;;;;;;7.48;100.00;100928.75;5073165;28;20049;-53
2022/12/26 08:03:50;;;;;;;12.70;7.15;;;;;;;7.48;100.00;100927.91;5073044;28;20057;-53
2022/12/26 08:06:19;;;;;;;11.63;7.68;;;;;;;7.49;100.00;100929.63;5073238;28;20123;-53
2022/12/26 08:08:47;;;;;;;12.60;7.00;;;;;;;7.52;100.00;100937.31;5073409;28;20047;-53
2022/12/26 08:11:20;;;;;;;11.68;6.55;;;;;;;7.51;100.00;100939.09;5073230;28;20361;-53
2022/12/26 08:13:48;;;;;;;10.68;6.60;;;;;;;7.54;100.00;100938.06;5068950;28;20048;-52
2022/12/26 08:16:20;;;;;;;12.38;6.32;;;;;;;7.56;100.00;100941.47;5067549;28;20523;-52
2022/12/26 08:18:49;;;;;;;10.63;6.50;;;;;;;7.55;100.00;100935.38;5072127;28;20047;-52
2022/12/26 08:21:17;;;;;;;11.60;5.90;;;;;;;7.63;100.00;100936.75;5072498;28;20055;-51
2022/12/26 08:23:47;;;;;;;9.90;5.80;;;;;;;7.65;100.00;100937.50;5072594;28;20515;-53
2022/12/26 08:26:21;;;;;;;10.85;5.85;;;;;;;7.71;100.00;100947.69;5072686;28;20044;-51
2022/12/26 08:28:50;;;;;;;13.20;6.10;;;;;;;7.73;100.00;100953.66;5072360;28;20127;-52
2022/12/26 08:31:20;;;;;;;12.10;5.85;;;;;;;7.76;100.00;100954.38;5067700;28;20055;-52
2022/12/26 08:33:50;;;;;;;9.68;4.90;;;;;;;7.83;100.00;100954.91;5070255;28;20070;-53
2022/12/26 08:36:18;;;;;;;9.38;5.60;;;;;;;7.87;100.00;100951.19;5072883;28;20569;-53
2022/12/26 08:38:46;;;;;;;10.30;5.03;;;;;;;7.91;100.00;100954.50;5072983;28;20063;-52
2022/12/26 08:41:16;;;;;;;12.10;5.80;;;;;;;7.94;100.00;100957.78;5072381;28;20047;-53
2022/12/26 08:43:48;;;;;;;9.90;5.10;;;;;;;7.93;100.00;100953.50;5072590;28;20098;-53
2022/12/26 08:46:38;;;;;;;8.85;5.25;;;;;;;7.94;100.00;100936.00;5072488;28;20487;-53
2022/12/26 08:49:08;;;;;;;11.50;5.15;;;;;;;8.00;100.00;100934.84;5070008;28;20152;-53
2022/12/26 08:51:38;;;;;;;9.55;4.88;;;;;;;7.98;100.00;100929.69;5069235;28;20036;-53
2022/12/26 08:54:07;;;;;;;11.30;4.45;;;;;;;8.04;100.00;100941.59;5072241;28;20048;-52
2022/12/26 08:56:35;;;;;;;11.82;4.75;;;;;;;8.05;100.00;100938.91;5069947;28;20091;-53
2022/12/26 08:59:03;;;;;;;8.02;4.03;;;;;;;8.10;100.00;100933.44;5068378;28;20052;-52
2022/12/26 09:01:32;;;;;;;9.88;4.20;;;;;;;8.16;100.00;100933.09;5069936;28;20048;-52
2022/12/26 09:04:03;;;;;;;13.68;4.57;;;;;;;8.17;100.00;100942.66;5068805;28;20044;-53
2022/12/26 09:06:34;;;;;;;7.13;3.88;;;;;;;8.22;100.00;100951.13;5069050;28;20049;-49
2022/12/26 09:09:03;;;;;;;8.75;3.97;;;;;;;8.23;100.00;100955.41;5072043;28;20076;-50
2022/12/26 09:11:32;;;;;;;7.60;3.40;;;;;;;8.31;100.00;100951.53;5072210;28;20066;-52
2022/12/26 09:14:04;;;;;;;8.93;3.50;;;;;;;8.32;100.00;100961.06;5072143;28;20086;-52
2022/12/26 09:16:41;;;;;;;11.00;3.90;;;;;;;8.46;100.00;100958.59;5072348;28;20123;-52
2022/12/26 09:19:17;;;;;;;8.30;3.58;;;;;;;8.56;100.00;100958.94;5072015;28;20040;-57
2022/12/26 09:21:48;;;;;;;9.82;3.30;;;;;;;8.65;100.00;100957.59;5072203;28;20428;-57
2022/12/26 09:24:18;;;;;;;7.88;3.38;;;;;;;8.72;100.00;100964.19;5070173;28;20045;-57
2022/12/26 09:26:46;;;;;;;9.65;3.58;;;;;;;8.73;100.00;100958.03;5068585;28;20045;-58
2022/12/26 09:29:14;;;;;;;6.70;3.08;;;;;;;8.72;100.00;100959.78;5068882;28;20057;-57
2022/12/26 09:31:43;;;;;;;7.60;3.33;;;;;;;8.80;100.00;100962.81;5071975;28;20090;-57
2022/12/26 09:34:13;;;;;;;6.63;3.33;;;;;;;8.82;100.00;100969.78;5071916;28;20041;-57
2022/12/26 09:36:41;;;;;;;8.75;3.72;;;;;;;8.83;100.00;100964.44;5070541;28;20049;-57
2022/12/26 09:39:12;;;;;;;7.85;3.22;;;;;;;8.89;100.00;100966.72;5069342;28;20095;-58
2022/12/26 09:41:51;;;;;;;8.65;3.30;;;;;;;8.95;100.00;100982.09;5070781;28;20402;-57
2022/12/26 09:44:25;;;;;;;10.32;3.20;;;;;;;9.01;100.00;100985.31;5071942;28;20041;-57
2022/12/26 09:47:06;;;;;;;5.45;2.95;;;;;;;9.03;100.00;100992.19;5072262;28;20044;-57
2022/12/26 09:49:39;;;;;;;8.70;3.05;;;;;;;9.04;100.00;100998.25;5072292;28;20056;-57
2022/12/26 09:52:12;;;;;;;7.65;2.95;;;;;;;9.01;100.00;100993.19;5071989;28;20044;-58
2022/12/26 09:54:47;;;;;;;8.95;3.08;;;;;;;9.01;100.00;100999.28;5071934;28;20036;-58
2022/12/26 09:57:19;;;;;;;9.23;3.10;;;;;;;9.01;100.00;100994.03;5070644;28;20132;-57
2022/12/26 09:59:52;;;;;;;5.90;3.20;;;;;;;9.01;100.00;100994.03;5069466;28;20068;-57
2022/12/26 10:02:23;;;;;;;14.23;3.50;;;;;;;8.93;100.00;101004.97;5071077;28;20040;-57
2022/12/26 10:04:52;;;;;;;12.00;3.20;;;;;;;8.97;100.00;101005.63;5071735;28;20419;-57
2022/12/26 10:07:29;;;;;;;9.38;3.78;;;;;;;8.91;100.00;101017.31;5071735;28;20094;-56
2022/12/26 10:10:10;;;;;;;7.30;3.10;;;;;;;8.85;100.00;101022.91;5070557;28;20052;-57
2022/12/26 10:12:46;;;;;;;10.20;3.15;;;;;;;8.86;100.00;101027.22;5068538;28;20086;-57
2022/12/26 10:15:30;;;;;;;9.30;3.08;;;;;;;8.80;100.00;101030.19;5072369;28;20048;-56
2022/12/26 10:18:11;;;;;;;12.02;4.22;;;;;;;8.80;100.00;101032.78;5075321;28;20051;-56
2022/12/26 10:20:53;;;;;;;13.48;3.42;;;;;;;8.73;100.00;101071.63;5075277;28;20064;-55
2022/12/26 10:23:32;;;;;;;7.30;2.60;;;;;;;8.65;100.00;101081.66;5074838;28;20044;-56
2022/12/26 10:26:09;;;;;;;6.43;2.28;;;;;;;8.54;100.00;101084.03;5074520;28;20055;-56
2022/12/26 10:28:41;;;;;;;5.20;2.40;;;;;;;8.49;100.00;101086.88;5074966;28;20056;-57
2022/12/26 10:31:16;;;;;;;4.25;2.00;;;;;;;8.49;100.00;101097.34;5072937;28;20675;-57
2022/12/26 10:33:49;;;;;;;9.18;2.20;;;;;;;8.51;100.00;101097.28;5072320;28;20056;-57
2022/12/26 10:36:26;;;;;;;6.22;2.08;;;;;;;8.53;100.00;101098.88;5074803;28;20052;-57
2022/12/26 10:38:58;;;;;;;8.27;2.08;;;;;;;8.52;100.00;101097.22;5073440;28;20055;-57
2022/12/26 10:41:34;;;;;;;10.60;2.70;;;;;;;8.51;100.00;101105.13;5074862;28;20056;-57
2022/12/26 10:44:02;;;;;;;5.20;2.20;;;;;;;8.57;100.00;101097.78;5073021;28;20522;-57
2022/12/26 10:46:56;;;;;;;7.78;2.17;;;;;;;8.61;100.00;101099.31;5071070;28;20161;-57
2022/12/26 10:49:26;;;;;;;8.40;2.42;;;;;;;8.60;100.00;101089.78;5074528;28;20494;-49
2022/12/26 10:51:57;;;;;;;7.50;2.40;;;;;;;8.60;100.00;101094.16;5074644;28;20058;-49
2022/12/26 10:54:28;;;;;;;5.65;1.98;;;;;;;8.57;100.00;101097.78;5074607;28;20119;-53
2022/12/26 10:56:59;;;;;;;9.98;2.65;;;;;;;8.59;100.00;101103.81;5074064;28;20082;-52
2022/12/26 10:59:37;;;;;;;8.57;2.58;;;;;;;8.55;100.00;101119.78;5070993;28;20058;-52
2022/12/26 11:02:22;;;;;;;11.85;2.60;;;;;;;8.48;100.00;101131.50;5103789;28;20576;-49
2022/12/26 11:05:06;;;;;;;8.52;1.90;;;;;;;8.16;100.00;101149.69;5074219;28;20036;-53
2022/12/26 11:07:56;;;;;;;12.30;1.88;;;;;;;7.79;100.00;101157.59;5072849;28;20190;-50
2022/12/26 11:10:29;;;;;;;10.73;1.90;;;;;;;7.78;100.00;101161.13;5070280;28;20048;-50
2022/12/26 11:13:02;;;;;;;11.65;2.45;;;;;;;7.66;100.00;101166.97;5070620;28;20052;-53
2022/12/26 11:15:34;;;;;;;12.93;2.30;;;;;;;7.60;100.00;101163.72;5072758;28;20499;-51
2022/12/26 11:18:19;;;;;;;12.20;2.47;;;;;;;7.59;100.00;101177.75;5073785;28;20049;-51
2022/12/26 11:20:48;;;;;;;13.32;1.92;;;;;;;7.60;100.00;101175.97;5073942;28;20052;-51
2022/12/26 11:23:26;;;;;;;11.95;2.22;;;;;;;7.55;100.00;101180.56;5073625;28;20044;-48
2022/12/26 11:25:59;;;;;;;11.80;2.20;;;;;;;7.47;100.00;101188.75;5073114;28;20050;-52
2022/12/26 11:28:33;;;;;;;12.00;2.17;;;;;;;7.49;100.00;101204.41;5073892;28;20044;-53
2022/12/26 11:31:04;;;;;;;12.05;2.20;;;;;;;7.36;100.00;101199.75;5073917;28;20480;-50
2022/12/26 11:33:36;;;;;;;12.52;2.00;;;;;;;7.43;100.00;101209.00;5073647;28;20551;-52
2022/12/26 11:36:10;;;;;;;14.55;2.60;;;;;;;7.43;100.00;101200.28;5073884;28;20087;-51
2022/12/26 11:38:49;;;;;;;15.98;2.67;;;;;;;7.52;100.00;101196.41;5074274;28;20047;-52
2022/12/26 11:41:32;;;;;;;15.30;2.90;;;;;;;7.51;100.00;101202.56;5073343;28;20139;-49
2022/12/26 11:44:22;;;;;;;17.65;3.88;;;;;;;7.45;100.00;101224.63;5071774;28;20578;-51
2022/12/26 11:46:54;;;;;;;16.38;3.30;;;;;;;7.49;100.00;101223.56;5066447;28;20118;-49
2022/12/26 11:49:28;;;;;;;11.52;2.50;;;;;;;7.45;100.00;101235.09;5073209;28;20125;-52
2022/12/26 11:51:58;;;;;;;14.35;4.47;;;;;;;7.49;100.00;101234.03;5072006;28;20051;-50
2022/12/26 11:54:30;;;;;;;15.90;3.10;;;;;;;7.40;100.00;101237.06;5073424;28;20075;-52
2022/12/26 11:57:12;;;;;;;11.50;3.10;;;;;;;7.36;100.00;101227.66;5073353;28;20123;-50
2022/12/26 11:59:42;;;;;;;11.95;2.55;;;;;;;7.38;100.00;101237.16;5070080;28;20050;-52
2022/12/26 12:02:18;;;;;;;12.27;2.72;;;;;;;7.30;100.00;101238.41;5067781;28;20045;-53
2022/12/26 12:04:47;;;;;;;14.50;2.30;;;;;;;7.33;100.00;101243.50;5072893;28;20056;-52
2022/12/26 12:07:30;;;;;;;11.52;2.13;;;;;;;7.36;100.00;101239.00;5072715;28;20048;-52
2022/12/26 12:10:10;;;;;;;11.27;2.70;;;;;;;7.33;100.00;101244.34;5072451;28;20106;-53
2022/12/26 12:12:46;;;;;;;10.75;1.92;;;;;;;7.34;100.00;101246.06;5072654;28;20043;-54
2022/12/26 12:15:23;;;;;;;9.77;1.92;;;;;;;7.40;100.00;101253.63;5073016;28;20078;-58
2022/12/26 12:18:12;;;;;;;13.43;1.90;;;;;;;7.31;100.00;101248.81;5072793;28;20503;-58
2022/12/26 12:20:55;;;;;;;8.40;1.65;;;;;;;7.25;100.00;101244.72;5072860;28;20382;-58
2022/12/26 12:23:46;;;;;;;7.85;1.48;;;;;;;7.24;100.00;101243.00;5069731;28;20059;-53
2022/12/26 12:26:18;;;;;;;7.80;1.38;;;;;;;7.19;100.00;101250.19;5071907;28;20052;-58
2022/12/26 12:29:08;;;;;;;7.95;1.48;;;;;;;7.09;100.00;101252.38;5072260;28;20045;-52
2022/12/26 12:31:50;;;;;;;9.25;1.63;;;;;;;7.11;100.00;101257.53;5067722;28;20116;-52
2022/12/26 12:34:30;;;;;;;6.07;1.17;;;;;;;7.21;100.00;101266.69;5071513;28;20054;-51
2022/12/26 12:37:11;;;;;;;8.10;1.77;;;;;;;7.16;100.00;101273.88;5069547;28;20040;-52
2022/12/26 12:39:52;;;;;;;8.00;1.33;;;;;;;7.22;100.00;101267.53;5070103;28;20407;-58
2022/12/26 12:42:35;;;;;;;7.78;1.27;;;;;;;7.14;100.00;101280.09;5072612;28;20123;-58
2022/12/26 12:45:21;;;;;;;7.95;1.45;;;;;;;7.21;100.00;101277.16;5071234;28;20136;-58
2022/12/26 12:48:04;;;;;;;4.88;1.10;;;;;;;7.24;100.00;101286.63;5072223;28;20086;-58
2022/12/26 12:50:39;;;;;;;8.03;1.30;;;;;;;7.20;100.00;101282.44;5070476;28;20074;-58
2022/12/26 12:53:18;;;;;;;8.07;1.50;;;;;;;7.20;100.00;101291.16;5069555;28;20479;-58
2022/12/26 12:56:01;;;;;;;6.63;1.30;;;;;;;7.28;100.00;101288.22;5072018;28;20119;-58
2022/12/26 12:58:36;;;;;;;6.32;1.30;;;;;;;7.35;100.00;101294.00;5071780;28;20075;-58
2022/12/26 13:01:09;;;;;;;8.77;1.70;;;;;;;7.41;100.00;101297.19;5068826;28;20049;-58
2022/12/26 13:03:46;;;;;;;6.95;1.70;;;;;;;7.43;100.00;101297.97;5071494;28;20099;-58
2022/12/26 13:06:18;;;;;;;8.65;1.45;;;;;;;7.42;100.00;101306.75;5072385;28;20056;-58
2022/12/26 13:08:51;;;;;;;5.47;1.00;;;;;;;7.43;100.00;101310.19;5072498;28;20475;-58
2022/12/26 13:11:23;;;;;;;8.85;1.48;;;;;;;7.37;100.00;101303.47;5072562;28;20553;-58
2022/12/26 13:13:56;;;;;;;6.75;1.25;;;;;;;7.28;100.00;101309.97;5072463;28;20044;-58
2022/12/26 13:16:28;;;;;;;5.95;1.50;;;;;;;7.23;100.00;101309.31;5072463;28;20036;-58
2022/12/26 13:19:01;;;;;;;8.63;1.50;;;;;;;7.26;100.00;101316.19;5072563;28;20045;-58
2022/12/26 13:21:34;;;;;;;10.00;1.60;;;;;;;7.27;100.00;101308.28;5071294;28;20392;-58
2022/12/26 13:24:23;;;;;;;10.43;2.50;;;;;;;7.21;100.00;101307.69;5069321;28;20163;-58
2022/12/26 13:26:59;;;;;;;7.22;1.30;;;;;;;7.17;100.00;101311.34;5071834;28;20055;-58
2022/12/26 13:29:39;;;;;;;7.72;1.27;;;;;;;7.08;100.00;101315.22;5072135;28;20399;-58
2022/12/26 13:32:18;;;;;;;10.95;2.05;;;;;;;7.06;100.00;101309.19;5072158;28;20048;-58
2022/12/26 13:34:48;;;;;;;8.07;2.55;;;;;;;6.97;100.00;101322.66;5072087;28;20033;-58
2022/12/26 13:37:54;;;;;;;10.75;1.50;;;;;;;6.90;100.00;101315.09;5072324;28;20051;-58
2022/12/26 13:40:26;;;;;;;8.73;1.42;;;;;;;6.82;100.00;101324.19;5071964;28;20131;-60
2022/12/26 13:45:53;;;;;;;5.60;1.10;;;;;;;6.85;100.00;101327.50;5069117;28;20044;-58
2022/12/26 13:49:07;;;;;;;9.57;1.52;;;;;;;6.83;100.00;101339.81;5072202;28;20052;-58
2022/12/26 13:51:52;;;;;;;8.30;1.35;;;;;;;6.73;100.00;101349.75;5076086;28;20044;-58